KDLN/DLN METAR and TAF weather

Enter ICAO airport designator
Station Type Date Time Source
KDLN METAR 2020/02/21 15:53 UTC NOAA

KDLN 211553Z AUTO 19008KT 10SM CLR M10/M19 A3024 RMK AO2 SLP316 T11001189


Station Type Date Time Source
KDLN Decoded METAR 2020/02/21 15:53 UTC NOAA

DILLON AIRPORT, MT, United States (KDLN) 45-15N 112-33W 1591M
Feb 21, 2020 - 10:53 AM EST / 2020.02.21 1553 UTC
Wind: from the S (190 degrees) at 9 MPH (8 KT):0
Visibility: 10 mile(s):0
Sky conditions: clear
Temperature: 14.0 F (-10.0 C)
Windchill: 1 F (-17 C):1
Dew Point: -2.0 F (-18.9 C)
Relative Humidity: 48%
Pressure (altimeter): 30.24 in. Hg (1024 hPa)
ob: KDLN 211553Z AUTO 19008KT 10SM CLR M10/M19 A3024 RMK AO2 SLP316 T11001189
cycle: 16

Station Type Date Time Source
KDLN TAF UTC NOAA

Error!

Example: see airport list